sensor_id;sensor_type;location;lat;lon;timestamp;pressure;altitude;pressure_sealevel;temperature;humidity
52319;BME280;38258;51.148;14.068;2023-01-28T00:00:57;99064.38;;;-2.36;100.00
52319;BME280;38258;51.148;14.068;2023-01-28T00:03:24;99065.16;;;-2.39;100.00
52319;BME280;38258;51.148;14.068;2023-01-28T00:05:51;99073.97;;;-2.31;100.00
52319;BME280;38258;51.148;14.068;2023-01-28T00:08:18;99071.97;;;-2.39;100.00
52319;BME280;38258;51.148;14.068;2023-01-28T00:10:44;99072.84;;;-2.39;100.00
52319;BME280;38258;51.148;14.068;2023-01-28T00:13:13;99069.34;;;-2.41;100.00
52319;BME280;38258;51.148;14.068;2023-01-28T00:15:40;99062.59;;;-2.39;100.00
52319;BME280;38258;51.148;14.068;2023-01-28T00:18:07;99076.94;;;-2.44;100.00
52319;BME280;38258;51.148;14.068;2023-01-28T00:20:34;99077.81;;;-2.44;100.00
52319;BME280;38258;51.148;14.068;2023-01-28T00:23:01;99078.56;;;-2.46;100.00
52319;BME280;38258;51.148;14.068;2023-01-28T00:25:28;99079.50;;;-2.44;100.00
52319;BME280;38258;51.148;14.068;2023-01-28T00:27:55;99075.09;;;-2.48;100.00
52319;BME280;38258;51.148;14.068;2023-01-28T00:30:23;99076.50;;;-2.57;100.00
52319;BME280;38258;51.148;14.068;2023-01-28T00:32:50;99074.00;;;-2.55;100.00
52319;BME280;38258;51.148;14.068;2023-01-28T00:35:18;99068.00;;;-2.56;100.00
52319;BME280;38258;51.148;14.068;2023-01-28T00:37:45;99060.13;;;-2.62;100.00
52319;BME280;38258;51.148;14.068;2023-01-28T00:40:13;99072.03;;;-2.62;100.00
52319;BME280;38258;51.148;14.068;2023-01-28T00:42:39;99076.50;;;-2.57;100.00
52319;BME280;38258;51.148;14.068;2023-01-28T00:45:07;99072.91;;;-2.62;100.00
52319;BME280;38258;51.148;14.068;2023-01-28T00:47:35;99075.50;;;-2.60;100.00
52319;BME280;38258;51.148;14.068;2023-01-28T00:50:03;99072.31;;;-2.54;100.00
52319;BME280;38258;51.148;14.068;2023-01-28T00:52:30;99071.47;;;-2.53;100.00
52319;BME280;38258;51.148;14.068;2023-01-28T00:54:57;99074.94;;;-2.53;100.00
52319;BME280;38258;51.148;14.068;2023-01-28T00:57:25;99077.41;;;-2.54;100.00
52319;BME280;38258;51.148;14.068;2023-01-28T00:59:52;99077.22;;;-2.61;100.00
52319;BME280;38258;51.148;14.068;2023-01-28T01:02:20;99079.03;;;-2.58;100.00
52319;BME280;38258;51.148;14.068;2023-01-28T01:04:48;99071.28;;;-2.60;100.00
52319;BME280;38258;51.148;14.068;2023-01-28T01:07:26;99072.81;;;-2.65;100.00
52319;BME280;38258;51.148;14.068;2023-01-28T01:09:59;99078.13;;;-2.59;100.00
52319;BME280;38258;51.148;14.068;2023-01-28T01:12:27;99075.38;;;-2.65;100.00
52319;BME280;38258;51.148;14.068;2023-01-28T01:14:54;99080.50;;;-2.65;100.00
52319;BME280;38258;51.148;14.068;2023-01-28T01:17:20;99078.03;;;-2.62;100.00
52319;BME280;38258;51.148;14.068;2023-01-28T01:19:49;99078.91;;;-2.61;100.00
52319;BME280;38258;51.148;14.068;2023-01-28T01:22:15;99085.66;;;-2.63;100.00
52319;BME280;38258;51.148;14.068;2023-01-28T01:24:42;99084.91;;;-2.61;100.00
52319;BME280;38258;51.148;14.068;2023-01-28T01:27:09;99083.81;;;-2.67;100.00
52319;BME280;38258;51.148;14.068;2023-01-28T01:29:36;99083.84;;;-2.66;100.00
52319;BME280;38258;51.148;14.068;2023-01-28T01:32:06;99089.75;;;-2.68;100.00
52319;BME280;38258;51.148;14.068;2023-01-28T01:34:32;99089.78;;;-2.67;100.00
52319;BME280;38258;51.148;14.068;2023-01-28T01:37:01;99089.69;;;-2.70;100.00
52319;BME280;38258;51.148;14.068;2023-01-28T01:39:30;99084.34;;;-2.76;100.00
52319;BME280;38258;51.148;14.068;2023-01-28T01:41:58;99098.25;;;-2.70;100.00
52319;BME280;38258;51.148;14.068;2023-01-28T01:44:58;99099.94;;;-2.70;100.00
52319;BME280;38258;51.148;14.068;2023-01-28T01:47:30;99099.94;;;-2.70;100.00
52319;BME280;38258;51.148;14.068;2023-01-28T01:50:01;99098.25;;;-2.70;100.00
52319;BME280;38258;51.148;14.068;2023-01-28T01:52:32;99093.78;;;-2.75;100.00
52319;BME280;38258;51.148;14.068;2023-01-28T01:55:03;99088.75;;;-2.72;100.00
52319;BME280;38258;51.148;14.068;2023-01-28T01:57:32;99092.25;;;-2.70;100.00
52319;BME280;38258;51.148;14.068;2023-01-28T02:00:02;99081.50;;;-2.84;100.00
52319;BME280;38258;51.148;14.068;2023-01-28T02:02:41;99093.72;;;-2.77;100.00
52319;BME280;38258;51.148;14.068;2023-01-28T02:05:10;99099.72;;;-2.76;100.00
52319;BME280;38258;51.148;14.068;2023-01-28T02:07:40;99084.00;;;-2.86;100.00
52319;BME280;38258;51.148;14.068;2023-01-28T02:10:10;99086.56;;;-2.86;100.00
52319;BME280;38258;51.148;14.068;2023-01-28T02:12:40;99081.56;;;-2.82;100.00
52319;BME280;38258;51.148;14.068;2023-01-28T02:15:10;99085.00;;;-2.82;100.00
52319;BME280;38258;51.148;14.068;2023-01-28T02:17:40;99081.25;;;-2.92;100.00
52319;BME280;38258;51.148;14.068;2023-01-28T02:20:09;99077.97;;;-2.88;100.00
52319;BME280;38258;51.148;14.068;2023-01-28T02:23:10;99076.31;;;-2.86;100.00
52319;BME280;38258;51.148;14.068;2023-01-28T02:26:25;99079.81;;;-2.84;100.00
52319;BME280;38258;51.148;14.068;2023-01-28T02:29:04;99083.09;;;-2.88;100.00
52319;BME280;38258;51.148;14.068;2023-01-28T02:31:39;99081.38;;;-2.87;100.00
52319;BME280;38258;51.148;14.068;2023-01-28T02:34:15;99082.44;;;-2.82;100.00
52319;BME280;38258;51.148;14.068;2023-01-28T02:36:47;99091.97;;;-2.78;100.00
52319;BME280;38258;51.148;14.068;2023-01-28T02:39:19;99097.09;;;-2.78;100.00
52319;BME280;38258;51.148;14.068;2023-01-28T02:41:51;99089.13;;;-2.86;100.00
52319;BME280;38258;51.148;14.068;2023-01-28T02:44:20;99074.31;;;-2.94;100.00
52319;BME280;38258;51.148;14.068;2023-01-28T02:46:47;99073.41;;;-2.95;100.00
52319;BME280;38258;51.148;14.068;2023-01-28T02:49:33;99102.19;;;-2.79;100.00
52319;BME280;38258;51.148;14.068;2023-01-28T02:52:20;99096.97;;;-2.81;100.00
52319;BME280;38258;51.148;14.068;2023-01-28T02:55:17;99083.66;;;-2.95;100.00
52319;BME280;38258;51.148;14.068;2023-01-28T02:57:52;99095.78;;;-2.91;100.00
52319;BME280;38258;51.148;14.068;2023-01-28T03:00:26;99096.81;;;-2.86;100.00
52319;BME280;38258;51.148;14.068;2023-01-28T03:03:04;99099.25;;;-2.89;100.00
52319;BME280;38258;51.148;14.068;2023-01-28T03:05:36;99093.41;;;-2.86;100.00
52319;BME280;38258;51.148;14.068;2023-01-28T03:08:05;99099.25;;;-2.89;100.00
52319;BME280;38258;51.148;14.068;2023-01-28T03:10:53;99099.84;;;-2.96;100.00
52319;BME280;38258;51.148;14.068;2023-01-28T03:13:39;99097.13;;;-3.01;100.00
52319;BME280;38258;51.148;14.068;2023-01-28T03:16:26;99097.97;;;-3.00;100.00
52319;BME280;38258;51.148;14.068;2023-01-28T03:19:12;99105.78;;;-2.97;100.00
52319;BME280;38258;51.148;14.068;2023-01-28T03:21:57;99096.47;;;-2.95;100.00
52319;BME280;38258;51.148;14.068;2023-01-28T03:24:46;99079.44;;;-3.17;100.00
52319;BME280;38258;51.148;14.068;2023-01-28T03:27:35;99108.28;;;-2.99;100.00
52319;BME280;38258;51.148;14.068;2023-01-28T03:30:25;99104.56;;;-3.07;100.00
52319;BME280;38258;51.148;14.068;2023-01-28T03:33:16;99110.44;;;-3.09;100.00
52319;BME280;38258;51.148;14.068;2023-01-28T03:36:02;99111.19;;;-3.12;100.00
52319;BME280;38258;51.148;14.068;2023-01-28T03:38:46;99113.59;;;-3.17;100.00
52319;BME280;38258;51.148;14.068;2023-01-28T03:41:20;99123.00;;;-3.16;100.00
52319;BME280;38258;51.148;14.068;2023-01-28T03:43:47;99129.75;;;-3.18;100.00
52319;BME280;38258;51.148;14.068;2023-01-28T03:46:15;99121.06;;;-3.21;100.00
52319;BME280;38258;51.148;14.068;2023-01-28T03:48:43;99125.19;;;-3.25;100.00
52319;BME280;38258;51.148;14.068;2023-01-28T03:51:11;99115.19;;;-3.42;100.00
52319;BME280;38258;51.148;14.068;2023-01-28T03:53:38;99124.97;;;-3.31;100.00
52319;BME280;38258;51.148;14.068;2023-01-28T03:56:06;99121.72;;;-3.27;100.00
52319;BME280;38258;51.148;14.068;2023-01-28T03:58:33;99132.47;;;-3.36;100.00
52319;BME280;38258;51.148;14.068;2023-01-28T04:01:18;99130.72;;;-3.37;100.00
52319;BME280;38258;51.148;14.068;2023-01-28T04:03:46;99133.09;;;-3.42;100.00
52319;BME280;38258;51.148;14.068;2023-01-28T04:06:21;99137.97;;;-3.48;100.00
52319;BME280;38258;51.148;14.068;2023-01-28T04:09:11;99136.91;;;-3.53;100.00
52319;BME280;38258;51.148;14.068;2023-01-28T04:11:53;99128.78;;;-3.64;100.00
52319;BME280;38258;51.148;14.068;2023-01-28T04:14:27;99136.84;;;-3.55;100.00
52319;BME280;38258;51.148;14.068;2023-01-28T04:17:06;99142.50;;;-3.62;100.00
52319;BME280;38258;51.148;14.068;2023-01-28T04:19:37;99142.31;;;-3.66;100.00
52319;BME280;38258;51.148;14.068;2023-01-28T04:22:09;99147.50;;;-3.65;100.00
52319;BME280;38258;51.148;14.068;2023-01-28T04:24:37;99148.00;;;-3.74;100.00
52319;BME280;38258;51.148;14.068;2023-01-28T04:27:04;99143.59;;;-3.78;100.00
52319;BME280;38258;51.148;14.068;2023-01-28T04:29:31;99141.16;;;-3.75;100.00
52319;BME280;38258;51.148;14.068;2023-01-28T04:32:12;99135.03;;;-3.78;100.00
52319;BME280;38258;51.148;14.068;2023-01-28T04:35:00;99144.31;;;-3.80;100.00
52319;BME280;38258;51.148;14.068;2023-01-28T04:37:45;99148.25;;;-3.67;100.00
52319;BME280;38258;51.148;14.068;2023-01-28T04:40:26;99144.63;;;-3.73;100.00
52319;BME280;38258;51.148;14.068;2023-01-28T04:43:00;99143.72;;;-3.75;100.00
52319;BME280;38258;51.148;14.068;2023-01-28T04:45:33;99146.47;;;-3.70;100.00
52319;BME280;38258;51.148;14.068;2023-01-28T04:48:18;99134.41;;;-3.94;100.00
52319;BME280;38258;51.148;14.068;2023-01-28T04:51:06;99072.09;;;-4.38;100.00
52319;BME280;38258;51.148;14.068;2023-01-28T04:53:59;99164.13;;;-3.96;100.00
52319;BME280;38258;51.148;14.068;2023-01-28T04:56:29;99151.16;;;-4.01;100.00
52319;BME280;38258;51.148;14.068;2023-01-28T04:58:56;99158.75;;;-4.02;100.00
52319;BME280;38258;51.148;14.068;2023-01-28T05:01:22;99157.09;;;-4.02;100.00
52319;BME280;38258;51.148;14.068;2023-01-28T05:03:50;99164.53;;;-4.06;100.00
52319;BME280;38258;51.148;14.068;2023-01-28T05:06:24;99126.13;;;-4.29;100.00
52319;BME280;38258;51.148;14.068;2023-01-28T05:08:57;99163.50;;;-4.12;100.00
52319;BME280;38258;51.148;14.068;2023-01-28T05:11:25;99171.63;;;-4.20;100.00
52319;BME280;38258;51.148;14.068;2023-01-28T05:13:57;99159.06;;;-4.35;100.00
52319;BME280;38258;51.148;14.068;2023-01-28T05:16:29;99181.84;;;-4.40;100.00
52319;BME280;38258;51.148;14.068;2023-01-28T05:18:56;99173.38;;;-4.39;100.00
52319;BME280;38258;51.148;14.068;2023-01-28T05:21:22;99186.13;;;-4.39;100.00
52319;BME280;38258;51.148;14.068;2023-01-28T05:23:58;99186.22;;;-4.37;100.00
52319;BME280;38258;51.148;14.068;2023-01-28T05:26:24;99189.69;;;-4.35;100.00
52319;BME280;38258;51.148;14.068;2023-01-28T05:28:51;99188.56;;;-4.42;100.00
52319;BME280;38258;51.148;14.068;2023-01-28T05:31:17;99178.53;;;-4.57;100.00
52319;BME280;38258;51.148;14.068;2023-01-28T05:33:44;99192.47;;;-4.50;100.00
52319;BME280;38258;51.148;14.068;2023-01-28T05:36:12;99195.16;;;-4.47;100.00
52319;BME280;38258;51.148;14.068;2023-01-28T05:38:39;99203.13;;;-4.59;100.00
52319;BME280;38258;51.148;14.068;2023-01-28T05:41:07;99201.59;;;-4.56;100.00
52319;BME280;38258;51.148;14.068;2023-01-28T05:43:34;99211.66;;;-4.59;100.00
52319;BME280;38258;51.148;14.068;2023-01-28T05:46:27;99163.66;;;-4.86;100.00
52319;BME280;38258;51.148;14.068;2023-01-28T05:48:56;99209.44;;;-4.51;100.00
52319;BME280;38258;51.148;14.068;2023-01-28T05:51:43;99212.69;;;-4.55;100.00
52319;BME280;38258;51.148;14.068;2023-01-28T05:54:13;99217.91;;;-4.72;100.00
52319;BME280;38258;51.148;14.068;2023-01-28T05:56:41;99174.97;;;-5.17;100.00
52319;BME280;38258;51.148;14.068;2023-01-28T05:59:10;99205.41;;;-4.84;100.00
52319;BME280;38258;51.148;14.068;2023-01-28T06:01:40;99221.09;;;-4.76;100.00
52319;BME280;38258;51.148;14.068;2023-01-28T06:04:06;99168.97;;;-4.99;100.00
52319;BME280;38258;51.148;14.068;2023-01-28T06:06:33;99222.47;;;-4.83;100.00
52319;BME280;38258;51.148;14.068;2023-01-28T06:09:02;99210.84;;;-4.95;100.00
52319;BME280;38258;51.148;14.068;2023-01-28T06:11:30;99232.09;;;-4.95;100.00
52319;BME280;38258;51.148;14.068;2023-01-28T06:14:02;99237.88;;;-4.99;100.00
52319;BME280;38258;51.148;14.068;2023-01-28T06:16:47;99245.91;;;-4.91;100.00
52319;BME280;38258;51.148;14.068;2023-01-28T06:19:43;99217.91;;;-5.08;100.00
52319;BME280;38258;51.148;14.068;2023-01-28T06:22:10;99249.78;;;-5.00;100.00
52319;BME280;38258;51.148;14.068;2023-01-28T06:24:36;99221.56;;;-5.21;100.00
52319;BME280;38258;51.148;14.068;2023-01-28T06:27:04;99248.75;;;-5.03;100.00
52319;BME280;38258;51.148;14.068;2023-01-28T06:29:32;99226.13;;;-5.14;100.00
52319;BME280;38258;51.148;14.068;2023-01-28T06:31:58;99253.72;;;-5.06;100.00
52319;BME280;38258;51.148;14.068;2023-01-28T06:34:25;99260.19;;;-4.95;100.00
52319;BME280;38258;51.148;14.068;2023-01-28T06:36:51;99269.31;;;-5.00;100.00
52319;BME280;38258;51.148;14.068;2023-01-28T06:39:18;99277.63;;;-4.86;100.00
52319;BME280;38258;51.148;14.068;2023-01-28T06:41:45;99281.13;;;-4.84;100.00
52319;BME280;38258;51.148;14.068;2023-01-28T06:44:12;99281.03;;;-4.86;100.00
52319;BME280;38258;51.148;14.068;2023-01-28T06:46:40;99278.56;;;-4.84;100.00
52319;BME280;38258;51.148;14.068;2023-01-28T06:49:06;99254.00;;;-5.00;100.00
52319;BME280;38258;51.148;14.068;2023-01-28T06:51:33;99211.84;;;-5.28;100.00
52319;BME280;38258;51.148;14.068;2023-01-28T06:53:59;99284.41;;;-4.87;100.00
52319;BME280;38258;51.148;14.068;2023-01-28T06:56:26;99288.41;;;-4.92;100.00
52319;BME280;38258;51.148;14.068;2023-01-28T06:58:52;99277.53;;;-5.06;100.00
52319;BME280;38258;51.148;14.068;2023-01-28T07:01:19;99298.53;;;-4.93;100.00
52319;BME280;38258;51.148;14.068;2023-01-28T07:03:47;99310.13;;;-5.00;100.00
52319;BME280;38258;51.148;14.068;2023-01-28T07:06:13;99308.59;;;-4.97;100.00
52319;BME280;38258;51.148;14.068;2023-01-28T07:08:40;99307.94;;;-4.92;100.00
52319;BME280;38258;51.148;14.068;2023-01-28T07:11:06;99304.69;;;-4.90;100.00
52319;BME280;38258;51.148;14.068;2023-01-28T07:13:33;99283.16;;;-4.95;100.00
52319;BME280;38258;51.148;14.068;2023-01-28T07:16:00;99308.84;;;-4.92;100.00
52319;BME280;38258;51.148;14.068;2023-01-28T07:18:26;99309.63;;;-4.93;100.00
52319;BME280;38258;51.148;14.068;2023-01-28T07:20:54;99305.53;;;-4.89;100.00
52319;BME280;38258;51.148;14.068;2023-01-28T07:23:21;99307.88;;;-4.76;100.00
52319;BME280;38258;51.148;14.068;2023-01-28T07:25:48;99304.81;;;-4.87;100.00
52319;BME280;38258;51.148;14.068;2023-01-28T07:28:14;99312.13;;;-4.76;100.00
52319;BME280;38258;51.148;14.068;2023-01-28T07:30:46;99311.09;;;-4.80;100.00
52319;BME280;38258;51.148;14.068;2023-01-28T07:33:13;99311.38;;;-4.92;100.00
52319;BME280;38258;51.148;14.068;2023-01-28T07:35:39;99308.97;;;-4.89;100.00
52319;BME280;38258;51.148;14.068;2023-01-28T07:38:11;99313.06;;;-4.92;100.00
52319;BME280;38258;51.148;14.068;2023-01-28T07:40:43;99314.31;;;-4.84;100.00
52319;BME280;38258;51.148;14.068;2023-01-28T07:43:10;99304.69;;;-4.90;100.00
52319;BME280;38258;51.148;14.068;2023-01-28T07:45:39;99307.38;;;-4.87;100.00
52319;BME280;38258;51.148;14.068;2023-01-28T07:48:07;99305.75;;;-4.85;100.00
52319;BME280;38258;51.148;14.068;2023-01-28T07:50:35;99242.22;;;-5.33;100.00
52319;BME280;38258;51.148;14.068;2023-01-28T07:53:02;99308.84;;;-4.92;100.00
52319;BME280;38258;51.148;14.068;2023-01-28T07:55:31;99315.59;;;-4.92;100.00
52319;BME280;38258;51.148;14.068;2023-01-28T07:58:00;99310.50;;;-4.92;100.00
52319;BME280;38258;51.148;14.068;2023-01-28T08:00:30;99320.00;;;-4.90;100.00
52319;BME280;38258;51.148;14.068;2023-01-28T08:02:58;99292.63;;;-4.92;100.00
52319;BME280;38258;51.148;14.068;2023-01-28T08:05:27;99286.34;;;-4.99;100.00
52319;BME280;38258;51.148;14.068;2023-01-28T08:07:57;99320.72;;;-4.74;100.00
52319;BME280;38258;51.148;14.068;2023-01-28T08:10:24;99324.44;;;-4.68;100.00
52319;BME280;38258;51.148;14.068;2023-01-28T08:12:53;99327.13;;;-4.64;100.00
52319;BME280;38258;51.148;14.068;2023-01-28T08:15:20;99303.56;;;-4.77;100.00
52319;BME280;38258;51.148;14.068;2023-01-28T08:17:47;99311.00;;;-4.45;100.00
52319;BME280;38258;51.148;14.068;2023-01-28T08:20:13;99321.66;;;-4.54;100.00
52319;BME280;38258;51.148;14.068;2023-01-28T08:22:40;99304.59;;;-4.55;100.00
52319;BME280;38258;51.148;14.068;2023-01-28T08:25:08;99327.34;;;-4.42;100.00
52319;BME280;38258;51.148;14.068;2023-01-28T08:27:34;99300.00;;;-4.62;100.00
52319;BME280;38258;51.148;14.068;2023-01-28T08:30:03;99322.25;;;-4.60;100.00
52319;BME280;38258;51.148;14.068;2023-01-28T08:32:30;99258.06;;;-4.86;100.00
52319;BME280;38258;51.148;14.068;2023-01-28T08:34:56;99321.44;;;-4.59;100.00
52319;BME280;38258;51.148;14.068;2023-01-28T08:37:24;99303.34;;;-4.63;100.00
52319;BME280;38258;51.148;14.068;2023-01-28T08:39:50;99331.56;;;-4.42;100.00
52319;BME280;38258;51.148;14.068;2023-01-28T08:42:17;99332.16;;;-4.48;100.00
52319;BME280;38258;51.148;14.068;2023-01-28T08:44:44;99319.16;;;-4.34;100.00
52319;BME280;38258;51.148;14.068;2023-01-28T08:47:11;99337.25;;;-4.30;100.00
52319;BME280;38258;51.148;14.068;2023-01-28T08:49:38;99334.63;;;-4.31;100.00
52319;BME280;38258;51.148;14.068;2023-01-28T08:52:05;99329.88;;;-4.23;100.00
52319;BME280;38258;51.148;14.068;2023-01-28T08:54:32;99342.25;;;-4.33;100.00
52319;BME280;38258;51.148;14.068;2023-01-28T08:57:00;99324.84;;;-4.40;100.00
52319;BME280;38258;51.148;14.068;2023-01-28T08:59:27;99329.34;;;-4.54;100.00
52319;BME280;38258;51.148;14.068;2023-01-28T09:01:53;99352.44;;;-4.33;100.00
52319;BME280;38258;51.148;14.068;2023-01-28T09:04:21;99350.41;;;-4.40;100.00
52319;BME280;38258;51.148;14.068;2023-01-28T09:06:48;99334.78;;;-4.28;100.00
52319;BME280;38258;51.148;14.068;2023-01-28T09:09:14;99348.56;;;-4.24;100.00
52319;BME280;38258;51.148;14.068;2023-01-28T09:11:41;99316.69;;;-4.33;100.00
52319;BME280;38258;51.148;14.068;2023-01-28T09:14:08;99346.06;;;-4.05;100.00
52319;BME280;38258;51.148;14.068;2023-01-28T09:16:34;99354.06;;;-3.97;100.00
52319;BME280;38258;51.148;14.068;2023-01-28T09:19:01;99349.34;;;-4.07;100.00
52319;BME280;38258;51.148;14.068;2023-01-28T09:21:28;99336.69;;;-4.04;100.00
52319;BME280;38258;51.148;14.068;2023-01-28T09:23:55;99335.75;;;-4.06;100.00
52319;BME280;38258;51.148;14.068;2023-01-28T09:26:22;99332.16;;;-4.30;100.00
52319;BME280;38258;51.148;14.068;2023-01-28T09:28:49;99360.06;;;-3.97;100.00
52319;BME280;38258;51.148;14.068;2023-01-28T09:31:16;99366.19;;;-3.93;100.00
52319;BME280;38258;51.148;14.068;2023-01-28T09:33:42;99363.03;;;-3.87;100.00
52319;BME280;38258;51.148;14.068;2023-01-28T09:36:10;99365.72;;;-3.84;100.00
52319;BME280;38258;51.148;14.068;2023-01-28T09:38:38;99362.94;;;-3.89;100.00
52319;BME280;38258;51.148;14.068;2023-01-28T09:41:18;99365.13;;;-3.78;100.00
52319;BME280;38258;51.148;14.068;2023-01-28T09:44:04;99368.00;;;-3.90;100.00
52319;BME280;38258;51.148;14.068;2023-01-28T09:46:32;99356.50;;;-4.00;100.00
52319;BME280;38258;51.148;14.068;2023-01-28T09:49:02;99372.09;;;-3.94;100.00
52319;BME280;38258;51.148;14.068;2023-01-28T09:51:33;99377.09;;;-3.97;100.00
52319;BME280;38258;51.148;14.068;2023-01-28T09:54:05;99375.94;;;-4.04;100.00
52319;BME280;38258;51.148;14.068;2023-01-28T09:56:40;99362.13;;;-4.07;100.00
52319;BME280;38258;51.148;14.068;2023-01-28T09:59:16;99383.59;;;-4.04;100.00
52319;BME280;38258;51.148;14.068;2023-01-28T10:01:48;99385.22;;;-3.86;100.00
52319;BME280;38258;51.148;14.068;2023-01-28T10:04:24;99372.25;;;-3.91;100.00
52319;BME280;38258;51.148;14.068;2023-01-28T10:07:01;99372.53;;;-3.85;100.00
52319;BME280;38258;51.148;14.068;2023-01-28T10:09:45;99369.69;;;-3.91;100.00
52319;BME280;38258;51.148;14.068;2023-01-28T10:12:38;99382.84;;;-3.63;100.00
52319;BME280;38258;51.148;14.068;2023-01-28T10:15:22;99364.56;;;-3.91;100.00
52319;BME280;38258;51.148;14.068;2023-01-28T10:17:53;99380.94;;;-3.87;100.00
52319;BME280;38258;51.148;14.068;2023-01-28T10:20:24;99377.19;;;-3.76;100.00
52319;BME280;38258;51.148;14.068;2023-01-28T10:22:57;99379.59;;;-3.79;100.00
52319;BME280;38258;51.148;14.068;2023-01-28T10:25:30;99371.03;;;-3.99;100.00
52319;BME280;38258;51.148;14.068;2023-01-28T10:27:57;99391.25;;;-4.04;100.00
52319;BME280;38258;51.148;14.068;2023-01-28T10:30:28;99386.59;;;-3.94;100.00
52319;BME280;38258;51.148;14.068;2023-01-28T10:32:59;99322.31;;;-4.40;100.00
52319;BME280;38258;51.148;14.068;2023-01-28T10:35:27;99392.19;;;-4.02;100.00
52319;BME280;38258;51.148;14.068;2023-01-28T10:37:59;99395.66;;;-4.01;100.00
52319;BME280;38258;51.148;14.068;2023-01-28T10:40:28;99371.75;;;-4.02;100.00
52319;BME280;38258;51.148;14.068;2023-01-28T10:42:55;99401.91;;;-3.94;100.00
52319;BME280;38258;51.148;14.068;2023-01-28T10:45:24;99370.81;;;-4.04;100.00
52319;BME280;38258;51.148;14.068;2023-01-28T10:47:55;99392.81;;;-3.88;100.00
52319;BME280;38258;51.148;14.068;2023-01-28T10:50:27;99403.22;;;-3.85;100.00
52319;BME280;38258;51.148;14.068;2023-01-28T10:52:55;99384.81;;;-3.95;100.00
52319;BME280;38258;51.148;14.068;2023-01-28T10:55:23;99401.09;;;-3.93;100.00
52319;BME280;38258;51.148;14.068;2023-01-28T10:57:53;99333.72;;;-4.51;100.00
52319;BME280;38258;51.148;14.068;2023-01-28T11:00:23;99352.72;;;-4.27;100.00
52319;BME280;38258;51.148;14.068;2023-01-28T11:02:51;99286.28;;;-4.64;100.00
52319;BME280;38258;51.148;14.068;2023-01-28T11:05:21;99231.13;;;-4.80;100.00
52319;BME280;38258;51.148;14.068;2023-01-28T11:08:01;99318.66;;;-4.45;100.00
52319;BME280;38258;51.148;14.068;2023-01-28T11:10:30;99375.72;;;-4.27;100.00
52319;BME280;38258;51.148;14.068;2023-01-28T11:13:01;99213.34;;;-5.15;100.00
52319;BME280;38258;51.148;14.068;2023-01-28T11:15:29;99326.56;;;-4.41;100.00
52319;BME280;38258;51.148;14.068;2023-01-28T11:17:58;99411.69;;;-3.86;100.00
52319;BME280;38258;51.148;14.068;2023-01-28T11:20:29;99291.25;;;-4.68;100.00
52319;BME280;38258;51.148;14.068;2023-01-28T11:22:57;99178.63;;;-5.30;100.00
52319;BME280;38258;51.148;14.068;2023-01-28T11:25:28;99258.78;;;-4.70;100.00
52319;BME280;38258;51.148;14.068;2023-01-28T11:28:03;99174.25;;;-5.32;100.00
52319;BME280;38258;51.148;14.068;2023-01-28T11:30:33;99390.34;;;-3.86;100.00
52319;BME280;38258;51.148;14.068;2023-01-28T11:33:06;99322.81;;;-4.29;100.00
52319;BME280;38258;51.148;14.068;2023-01-28T11:35:40;99255.03;;;-4.41;100.00
52319;BME280;38258;51.148;14.068;2023-01-28T11:38:16;99396.44;;;-3.64;100.00
52319;BME280;38258;51.148;14.068;2023-01-28T11:40:48;99361.69;;;-4.17;100.00
52319;BME280;38258;51.148;14.068;2023-01-28T11:43:17;99310.88;;;-4.48;100.00
52319;BME280;38258;51.148;14.068;2023-01-28T11:45:51;99401.03;;;-4.13;100.00
52319;BME280;38258;51.148;14.068;2023-01-28T11:48:31;99400.34;;;-3.91;100.00
52319;BME280;38258;51.148;14.068;2023-01-28T11:51:09;99273.28;;;-4.51;100.00
52319;BME280;38258;51.148;14.068;2023-01-28T11:53:59;99257.50;;;-4.80;100.00
52319;BME280;38258;51.148;14.068;2023-01-28T11:56:45;99233.44;;;-4.85;100.00
52319;BME280;38258;51.148;14.068;2023-01-28T11:59:28;99255.38;;;-4.71;100.00
52319;BME280;38258;51.148;14.068;2023-01-28T12:02:03;99397.78;;;-3.91;100.00
52319;BME280;38258;51.148;14.068;2023-01-28T12:04:45;99227.41;;;-4.49;100.00
52319;BME280;38258;51.148;14.068;2023-01-28T12:07:25;99373.81;;;-3.75;100.00
52319;BME280;38258;51.148;14.068;2023-01-28T12:10:02;99244.25;;;-4.53;100.00
52319;BME280;38258;51.148;14.068;2023-01-28T12:12:43;99227.66;;;-4.63;100.00
52319;BME280;38258;51.148;14.068;2023-01-28T12:15:30;99373.94;;;-3.72;100.00
52319;BME280;38258;51.148;14.068;2023-01-28T12:18:15;99298.59;;;-4.37;100.00
52319;BME280;38258;51.148;14.068;2023-01-28T12:20:49;99297.97;;;-4.70;100.00
52319;BME280;38258;51.148;14.068;2023-01-28T12:23:32;99246.19;;;-5.03;100.00
52319;BME280;38258;51.148;14.068;2023-01-28T12:26:09;99305.91;;;-4.63;100.00
52319;BME280;38258;51.148;14.068;2023-01-28T12:28:47;99270.91;;;-4.66;100.00
52319;BME280;38258;51.148;14.068;2023-01-28T12:31:38;99284.34;;;-4.32;100.00
52319;BME280;38258;51.148;14.068;2023-01-28T12:34:30;99339.16;;;-4.26;100.00
52319;BME280;38258;51.148;14.068;2023-01-28T12:37:07;99332.81;;;-4.16;100.00
52319;BME280;38258;51.148;14.068;2023-01-28T12:39:52;99221.19;;;-4.92;100.00
52319;BME280;38258;51.148;14.068;2023-01-28T12:42:31;99383.69;;;-3.83;100.00
52319;BME280;38258;51.148;14.068;2023-01-28T12:45:02;99282.78;;;-4.48;100.00
52319;BME280;38258;51.148;14.068;2023-01-28T12:47:34;99174.75;;;-5.03;100.00
52319;BME280;38258;51.148;14.068;2023-01-28T12:50:11;99166.78;;;-4.91;100.00
52319;BME280;38258;51.148;14.068;2023-01-28T12:52:52;99160.03;;;-4.91;100.00
52319;BME280;38258;51.148;14.068;2023-01-28T12:55:38;99360.47;;;-3.87;100.00
52319;BME280;38258;51.148;14.068;2023-01-28T12:58:14;99213.28;;;-4.79;100.00
52319;BME280;38258;51.148;14.068;2023-01-28T13:00:47;99167.09;;;-5.03;100.00
52319;BME280;38258;51.148;14.068;2023-01-28T13:03:20;99361.03;;;-3.75;100.00
52319;BME280;38258;51.148;14.068;2023-01-28T13:05:52;99366.28;;;-3.72;100.00